Time;durP1;ratioP1;P1;durP2;ratioP2;P2;SDS_P1;SDS_P2;PMS_P1;PMS_P2;Temp;Humidity;BMP_temperature;BMP_pressure;BME280_temperature;BME280_humidity;BME280_pressure;Samples;Min_cycle;Max_cycle;Signal;HPM_P1;HPM_P2
2022/02/03 00:04:44;;;;;;;115.50;42.40;;;7.80;99.90;;;;;;4964081;28;20524;-53
2022/02/03 00:07:16;;;;;;;112.57;43.33;;;7.90;99.90;;;;;;4963363;28;20059;-53
2022/02/03 00:10:08;;;;;;;111.10;42.83;;;7.90;99.90;;;;;;4968415;28;20043;-49
2022/02/03 00:26:11;;;;;;;89.05;35.35;;;8.10;99.90;;;;;;4933886;28;20077;-64
2022/02/03 00:28:45;;;;;;;87.97;34.33;;;8.10;99.90;;;;;;4964478;28;20589;-64
2022/02/03 00:31:32;;;;;;;80.35;32.63;;;8.10;99.90;;;;;;4969613;28;20041;-64
2022/02/03 00:34:14;;;;;;;84.68;33.00;;;8.20;99.90;;;;;;4931666;28;20062;-64
2022/02/03 00:37:07;;;;;;;84.90;33.67;;;8.10;99.90;;;;;;4961494;28;20047;-64
2022/02/03 00:50:41;;;;;;;88.50;34.95;;;8.20;99.90;;;;;;4961930;28;20134;-64
2022/02/03 00:53:13;;;;;;;100.50;36.13;;;8.20;99.90;;;;;;4964470;28;20042;-67
2022/02/03 00:55:46;;;;;;;88.93;33.83;;;8.20;99.90;;;;;;4963974;28;20347;-64
2022/02/03 00:58:17;;;;;;;99.45;35.03;;;8.20;99.90;;;;;;4964088;28;20055;-64
2022/02/03 01:00:50;;;;;;;85.40;34.00;;;8.20;99.90;;;;;;4963352;28;20474;-64
2022/02/03 01:03:17;;;;;;;89.70;33.05;;;8.30;99.90;;;;;;4970567;28;20046;-65
2022/02/03 01:05:47;;;;;;;85.68;32.17;;;8.30;99.90;;;;;;4963271;28;20069;-64
2022/02/03 01:08:20;;;;;;;81.13;31.98;;;8.30;99.90;;;;;;4963782;28;20051;-63
2022/02/03 01:10:55;;;;;;;92.68;33.83;;;8.20;99.90;;;;;;4962460;28;20354;-63
2022/02/03 01:35:02;;;;;;;114.10;40.42;;;8.30;99.90;;;;;;4968692;28;20494;-64
2022/02/03 01:53:54;;;;;;;148.18;47.30;;;8.30;99.90;;;;;;4963293;28;20082;-55
2022/02/03 01:56:31;;;;;;;127.38;45.08;;;8.40;99.90;;;;;;5022726;28;20718;-63
2022/02/03 01:59:01;;;;;;;125.20;46.53;;;8.40;99.90;;;;;;5064285;28;20048;-52
2022/02/03 02:01:29;;;;;;;140.90;47.17;;;8.30;99.90;;;;;;5049770;28;20127;-64
2022/02/03 02:04:10;;;;;;;147.13;49.78;;;8.40;99.90;;;;;;4943501;28;20411;-63
2022/02/03 02:06:59;;;;;;;129.55;45.88;;;8.40;99.90;;;;;;4992333;28;20532;-64
2022/02/03 02:09:49;;;;;;;133.18;44.88;;;8.40;99.90;;;;;;4969739;28;20316;-63
2022/02/03 02:13:15;;;;;;;112.70;44.10;;;8.40;99.90;;;;;;4961564;28;20046;-63
2022/02/03 02:38:54;;;;;;;111.85;47.75;;;8.40;99.90;;;;;;4954898;28;20042;-54
2022/02/03 02:44:35;;;;;;;108.57;48.03;;;8.40;99.90;;;;;;4961527;28;20150;-54
2022/02/03 02:47:07;;;;;;;103.13;49.47;;;8.40;99.90;;;;;;4949843;28;20096;-53
2022/02/03 02:49:50;;;;;;;107.57;50.53;;;8.40;99.90;;;;;;4968281;28;20306;-53
2022/02/03 02:52:26;;;;;;;94.00;47.47;;;8.40;99.90;;;;;;4963110;28;20074;-63
2022/02/03 03:34:08;;;;;;;81.10;46.33;;;8.40;99.90;;;;;;4962308;28;20074;-63
2022/02/03 03:36:38;;;;;;;87.80;46.85;;;8.40;99.90;;;;;;4960710;28;20047;-64
2022/02/03 03:39:05;;;;;;;84.07;48.13;;;8.40;99.90;;;;;;4947878;28;20290;-64
2022/02/03 03:41:34;;;;;;;84.40;45.55;;;8.40;99.90;;;;;;4972176;28;20524;-63
2022/02/03 03:44:03;;;;;;;78.68;44.15;;;8.40;99.90;;;;;;4964158;28;20154;-63
2022/02/03 03:46:34;;;;;;;72.97;44.42;;;8.40;99.90;;;;;;4965204;28;20066;-63
2022/02/03 03:49:27;;;;;;;69.93;44.30;;;8.40;99.90;;;;;;4964810;28;20251;-63
2022/02/03 03:52:06;;;;;;;75.85;43.10;;;8.30;99.90;;;;;;4971033;28;20050;-63
2022/02/03 03:54:42;;;;;;;79.47;45.30;;;8.30;99.90;;;;;;4964911;28;20047;-63
2022/02/03 03:57:35;;;;;;;74.05;44.58;;;8.40;99.90;;;;;;4949292;28;20454;-64
2022/02/03 04:39:22;;;;;;;69.60;48.15;;;8.40;99.90;;;;;;5066486;28;20044;-54
2022/02/03 04:54:08;;;;;;;78.03;50.28;;;8.30;99.90;;;;;;4964078;28;20055;-55
2022/02/03 04:59:56;;;;;;;82.15;50.22;;;8.30;99.90;;;;;;4964061;28;20432;-51
2022/02/03 05:06:09;;;;;;;83.30;51.45;;;8.30;99.90;;;;;;4969016;28;20155;-53
2022/02/03 05:08:58;;;;;;;80.45;51.05;;;8.20;99.90;;;;;;4987260;28;20097;-64
2022/02/03 05:11:47;;;;;;;92.88;51.95;;;8.30;99.90;;;;;;4963983;28;20059;-64
2022/02/03 05:44:50;;;;;;;90.55;54.08;;;8.30;99.90;;;;;;5023142;28;20078;-64
2022/02/03 05:50:34;;;;;;;94.50;57.17;;;8.30;99.90;;;;;;4965046;28;20055;-63
2022/02/03 06:08:50;;;;;;;95.65;55.78;;;8.30;99.90;;;;;;5009468;28;20678;-65
2022/02/03 06:21:30;;;;;;;93.38;54.40;;;8.30;99.90;;;;;;4963158;28;20126;-64
2022/02/03 06:24:16;;;;;;;90.82;53.67;;;8.30;99.90;;;;;;4961678;28;20127;-64
2022/02/03 06:29:31;;;;;;;85.05;52.42;;;8.30;99.90;;;;;;4981516;28;20046;-54
2022/02/03 06:31:57;;;;;;;77.95;51.70;;;8.30;99.90;;;;;;4983614;28;20055;-52
2022/02/03 06:34:23;;;;;;;77.07;48.13;;;8.30;99.90;;;;;;4962953;28;20367;-55
2022/02/03 06:36:51;;;;;;;73.18;46.53;;;8.30;99.90;;;;;;4956455;28;20426;-54
2022/02/03 06:39:24;;;;;;;70.65;45.80;;;8.30;99.90;;;;;;4980584;28;20040;-54
2022/02/03 06:41:56;;;;;;;66.82;44.20;;;8.30;99.90;;;;;;4977228;28;20062;-55
2022/02/03 06:44:28;;;;;;;67.70;45.60;;;8.40;99.90;;;;;;4973013;28;20134;-53
2022/02/03 06:46:59;;;;;;;62.08;43.78;;;8.30;99.90;;;;;;5063829;28;20072;-50
2022/02/03 06:52:01;;;;;;;64.90;46.05;;;8.40;99.90;;;;;;4962549;28;20573;-54
2022/02/03 06:54:45;;;;;;;66.32;43.65;;;8.30;99.90;;;;;;4962835;28;20112;-53
2022/02/03 06:57:18;;;;;;;61.90;42.10;;;8.30;99.90;;;;;;4958134;28;20058;-57
2022/02/03 06:59:53;;;;;;;63.08;43.00;;;8.30;99.90;;;;;;4984897;28;20359;-54
2022/02/03 07:02:21;;;;;;;54.67;38.65;;;8.30;99.90;;;;;;4978404;28;20061;-59
2022/02/03 07:04:48;;;;;;;56.97;39.25;;;8.30;99.90;;;;;;4965390;28;20047;-65
2022/02/03 07:07:18;;;;;;;55.58;37.90;;;8.20;99.90;;;;;;4998741;28;20392;-55
2022/02/03 07:09:48;;;;;;;60.70;39.05;;;8.20;99.90;;;;;;4967907;28;20054;-63
2022/02/03 07:12:14;;;;;;;46.30;35.55;;;8.30;99.90;;;;;;5009179;28;20138;-52
2022/02/03 07:14:40;;;;;;;58.85;38.00;;;8.20;99.90;;;;;;4965134;28;20511;-55
2022/02/03 07:17:07;;;;;;;52.15;36.75;;;8.20;99.90;;;;;;5032569;28;20065;-54
2022/02/03 07:19:36;;;;;;;48.72;33.38;;;8.20;99.90;;;;;;4972579;28;20498;-52
2022/02/03 07:22:03;;;;;;;48.45;34.20;;;8.20;99.90;;;;;;4957324;28;20525;-55
2022/02/03 07:24:29;;;;;;;47.47;33.67;;;8.20;99.90;;;;;;5022446;28;20064;-54
2022/02/03 07:26:55;;;;;;;47.10;33.08;;;8.10;99.90;;;;;;4938621;28;20047;-54
2022/02/03 07:29:21;;;;;;;47.17;32.65;;;8.20;99.90;;;;;;4965659;28;20509;-54
2022/02/03 07:31:47;;;;;;;47.33;32.50;;;8.20;99.90;;;;;;4963047;28;20447;-53
2022/02/03 07:34:15;;;;;;;49.17;32.10;;;8.20;99.90;;;;;;4962640;28;20378;-52
2022/02/03 07:36:44;;;;;;;42.35;29.65;;;8.10;99.90;;;;;;4997186;28;20055;-51
2022/02/03 07:39:11;;;;;;;40.00;29.33;;;8.10;99.90;;;;;;4925739;29;20051;-53
2022/02/03 07:41:37;;;;;;;43.30;29.55;;;8.10;99.90;;;;;;4963856;28;20150;-54
2022/02/03 07:44:04;;;;;;;44.03;28.95;;;8.10;99.90;;;;;;4964788;28;20486;-53
2022/02/03 07:46:31;;;;;;;45.65;29.42;;;8.20;99.90;;;;;;4954077;28;20050;-52
2022/02/03 07:48:58;;;;;;;41.10;28.05;;;8.20;99.90;;;;;;5038016;28;20048;-52
2022/02/03 07:51:25;;;;;;;44.70;29.83;;;8.10;99.90;;;;;;4972965;28;20689;-51
2022/02/03 07:53:51;;;;;;;41.33;28.90;;;8.10;99.90;;;;;;4967921;28;20372;-50
2022/02/03 07:56:17;;;;;;;41.47;28.17;;;8.10;99.90;;;;;;4992743;28;20047;-50
2022/02/03 07:58:44;;;;;;;40.05;28.50;;;8.10;99.90;;;;;;4977160;28;20132;-49
2022/02/03 08:01:10;;;;;;;42.58;27.70;;;8.10;99.90;;;;;;4985788;28;20392;-50
2022/02/03 08:03:42;;;;;;;38.15;26.90;;;8.10;99.90;;;;;;5024439;28;20542;-53
2022/02/03 08:06:13;;;;;;;35.50;25.35;;;8.10;99.90;;;;;;4964267;28;20047;-63
2022/02/03 08:08:47;;;;;;;34.97;25.15;;;8.10;99.90;;;;;;4943966;28;20101;-63
2022/02/03 08:11:20;;;;;;;36.40;24.33;;;8.10;99.90;;;;;;4943945;28;20047;-63
2022/02/03 08:13:55;;;;;;;37.88;23.88;;;8.10;99.90;;;;;;4944686;28;20105;-63
2022/02/03 08:18:52;;;;;;;35.08;23.08;;;8.10;99.90;;;;;;4949063;28;20505;-63
2022/02/03 08:21:20;;;;;;;37.47;23.53;;;8.10;99.90;;;;;;4983130;28;20076;-63
2022/02/03 08:31:25;;;;;;;31.70;19.85;;;8.10;99.90;;;;;;5011750;28;20122;-63
2022/02/03 08:33:52;;;;;;;32.33;19.98;;;8.10;99.90;;;;;;4988731;28;20138;-65
2022/02/03 08:36:20;;;;;;;25.40;19.40;;;8.10;99.90;;;;;;5022397;28;20113;-62
2022/02/03 08:38:49;;;;;;;26.40;19.02;;;8.10;99.90;;;;;;4993588;28;20054;-62
2022/02/03 08:41:16;;;;;;;25.38;18.70;;;8.10;99.90;;;;;;4999891;28;20040;-62
2022/02/03 08:43:43;;;;;;;26.27;18.00;;;8.00;99.90;;;;;;5017402;28;20498;-62
2022/02/03 08:46:15;;;;;;;28.88;19.58;;;8.10;99.90;;;;;;5027988;28;20117;-63
2022/02/03 08:48:42;;;;;;;31.90;18.52;;;8.10;99.90;;;;;;4991784;28;20491;-62
2022/02/03 08:51:09;;;;;;;26.38;19.10;;;8.10;99.90;;;;;;5003883;28;20051;-61
2022/02/03 08:53:46;;;;;;;26.45;17.40;;;8.10;99.90;;;;;;5025394;28;20402;-64
2022/02/03 09:58:22;;;;;;;26.58;21.23;;;7.80;99.90;;;;;;4951698;28;20059;-63
2022/02/03 10:03:32;;;;;;;29.95;23.33;;;7.80;99.90;;;;;;4996737;28;20138;-63
2022/02/03 10:06:01;;;;;;;32.53;23.90;;;7.80;99.90;;;;;;4957879;28;20059;-63
2022/02/03 10:08:28;;;;;;;30.02;23.17;;;7.70;99.90;;;;;;4950741;28;20052;-63
2022/02/03 10:11:17;;;;;;;34.92;24.42;;;7.70;99.90;;;;;;5062563;28;20048;-63
2022/02/03 10:13:49;;;;;;;30.92;22.55;;;7.70;99.90;;;;;;4958935;28;20090;-64
2022/02/03 10:16:18;;;;;;;27.45;23.13;;;7.70;99.90;;;;;;4958235;28;20051;-63
2022/02/03 10:18:45;;;;;;;30.15;21.40;;;7.70;99.90;;;;;;4954518;28;20051;-61
2022/02/03 10:21:17;;;;;;;29.33;21.92;;;7.70;99.90;;;;;;4951666;28;20053;-64
2022/02/03 10:23:59;;;;;;;26.33;19.95;;;7.70;99.90;;;;;;4982663;28;20128;-64
2022/02/03 10:26:44;;;;;;;27.83;21.60;;;7.80;99.90;;;;;;4965632;28;20130;-54
2022/02/03 10:29:18;;;;;;;27.55;20.88;;;7.90;99.90;;;;;;4965752;28;21495;-53
2022/02/03 10:31:45;;;;;;;25.65;21.02;;;7.90;99.90;;;;;;4986430;28;20056;-53
2022/02/03 10:34:18;;;;;;;26.48;20.52;;;7.90;99.90;;;;;;5013888;28;20051;-53
2022/02/03 10:36:54;;;;;;;26.30;21.17;;;7.90;99.90;;;;;;4961457;28;20112;-51
2022/02/03 10:45:22;;;;;;;26.50;21.17;;;7.90;99.90;;;;;;5041032;28;20576;-63
2022/02/03 10:55:52;;;;;;;26.42;20.95;;;8.00;99.90;;;;;;4955343;28;20047;-64
2022/02/03 11:06:43;;;;;;;26.52;21.33;;;8.10;99.90;;;;;;4956681;28;20082;-63
2022/02/03 11:09:17;;;;;;;27.48;20.83;;;8.10;99.90;;;;;;4971915;28;20121;-63
2022/02/03 11:11:51;;;;;;;28.23;21.48;;;8.10;99.90;;;;;;4974132;28;20062;-60
2022/02/03 11:14:19;;;;;;;26.60;21.73;;;8.00;99.90;;;;;;4973101;28;20043;-63
2022/02/03 11:16:45;;;;;;;30.38;22.25;;;8.10;99.90;;;;;;4959685;28;20476;-62
2022/02/03 11:19:15;;;;;;;26.58;21.25;;;8.10;99.90;;;;;;4945671;28;20618;-62
2022/02/03 11:21:47;;;;;;;27.35;20.50;;;8.10;99.90;;;;;;4981434;28;20079;-63
2022/02/03 11:24:23;;;;;;;25.25;21.08;;;8.00;99.90;;;;;;4949439;28;20055;-62
2022/02/03 11:32:48;;;;;;;32.00;24.25;;;7.70;99.90;;;;;;4937805;28;20047;-63
2022/02/03 11:46:18;;;;;;;29.63;21.48;;;7.60;99.90;;;;;;4959130;28;20138;-63
2022/02/03 12:08:19;;;;;;;21.67;17.27;;;7.70;99.90;;;;;;4990335;28;20082;-49
2022/02/03 12:21:56;;;;;;;18.80;14.75;;;7.70;99.90;;;;;;4976943;28;20047;-66
2022/02/03 12:24:36;;;;;;;17.70;14.52;;;7.70;99.90;;;;;;4965426;28;20047;-65
2022/02/03 12:30:01;;;;;;;22.08;15.20;;;7.60;99.90;;;;;;4973187;28;20057;-65
2022/02/03 12:33:17;;;;;;;22.23;16.33;;;7.50;99.90;;;;;;4960625;28;20485;-66
2022/02/03 12:38:48;;;;;;;22.80;16.10;;;7.50;99.90;;;;;;4982634;28;20052;-64
2022/02/03 12:40:55;;;;;;;20.75;15.82;;;7.50;99.90;;;;;;4980739;28;20058;-63
2022/02/03 12:43:42;;;;;;;22.85;18.00;;;7.40;99.90;;;;;;5002872;28;20051;-64
2022/02/03 12:46:08;;;;;;;21.25;16.88;;;7.50;99.90;;;;;;5006205;28;20160;-61
2022/02/03 12:48:36;;;;;;;21.90;17.38;;;7.50;99.90;;;;;;4996017;28;20062;-64
2022/02/03 12:51:05;;;;;;;20.40;16.65;;;7.50;99.90;;;;;;5024921;28;20047;-64
2022/02/03 12:53:33;;;;;;;19.50;16.45;;;7.50;99.90;;;;;;4991631;28;20108;-64
2022/02/03 12:56:06;;;;;;;20.88;16.90;;;7.50;99.90;;;;;;5019402;28;20101;-64
2022/02/03 12:58:41;;;;;;;19.20;17.10;;;7.50;99.90;;;;;;5003402;28;20046;-64
2022/02/03 13:01:16;;;;;;;23.05;16.70;;;7.50;99.90;;;;;;4992280;28;20054;-64
2022/02/03 13:03:50;;;;;;;26.00;18.65;;;7.50;99.90;;;;;;5008815;28;20049;-64
2022/02/03 13:06:21;;;;;;;21.48;17.90;;;7.50;99.90;;;;;;4990459;28;20050;-64
2022/02/03 13:09:00;;;;;;;20.80;16.77;;;7.50;99.90;;;;;;5014563;28;20055;-64
2022/02/03 13:11:39;;;;;;;22.15;17.27;;;7.50;99.90;;;;;;4996919;28;20056;-64
2022/02/03 13:14:24;;;;;;;22.42;15.98;;;7.60;99.90;;;;;;5007198;28;20046;-64
2022/02/03 13:27:33;;;;;;;19.38;16.08;;;7.50;99.90;;;;;;4967187;28;20066;-52
2022/02/03 13:32:34;;;;;;;18.55;15.18;;;7.50;99.90;;;;;;4970331;28;20486;-52
2022/02/03 13:35:07;;;;;;;17.75;14.60;;;7.50;99.90;;;;;;4957484;28;20047;-53
2022/02/03 13:37:44;;;;;;;20.38;15.05;;;7.50;99.90;;;;;;4968742;28;20587;-51
2022/02/03 13:40:15;;;;;;;19.25;15.55;;;7.50;99.90;;;;;;4981381;28;20056;-50
2022/02/03 13:42:48;;;;;;;15.55;13.85;;;7.60;99.90;;;;;;4964408;28;20058;-54
2022/02/03 13:45:15;;;;;;;17.67;13.95;;;7.60;99.90;;;;;;4972813;28;20050;-51
2022/02/03 13:47:42;;;;;;;16.27;13.32;;;7.60;99.90;;;;;;4974146;28;20629;-54
2022/02/03 13:50:23;;;;;;;18.75;14.32;;;7.60;99.90;;;;;;4965782;28;20089;-52
2022/02/03 13:53:06;;;;;;;17.52;13.50;;;7.60;99.90;;;;;;4959774;28;20296;-52
2022/02/03 14:18:33;;;;;;;14.52;11.90;;;7.70;99.90;;;;;;4971133;28;20038;-64
2022/02/03 14:21:08;;;;;;;13.27;11.68;;;7.70;99.90;;;;;;4966148;28;20055;-64
2022/02/03 14:29:15;;;;;;;13.77;11.82;;;7.70;99.90;;;;;;4958536;28;20414;-64
2022/02/03 14:31:42;;;;;;;14.82;11.85;;;7.70;99.90;;;;;;4962330;28;20515;-64
2022/02/03 14:34:15;;;;;;;14.70;12.60;;;7.70;99.90;;;;;;4955506;28;20480;-63
2022/02/03 14:36:45;;;;;;;16.30;12.63;;;7.70;99.90;;;;;;4982393;28;20056;-64
2022/02/03 14:39:19;;;;;;;17.60;13.90;;;7.70;99.90;;;;;;4953034;28;20055;-64
2022/02/03 14:41:46;;;;;;;17.15;14.50;;;7.60;99.90;;;;;;4965180;28;20054;-64
2022/02/03 14:44:15;;;;;;;16.60;14.02;;;7.60;99.90;;;;;;4959959;28;20054;-64
2022/02/03 14:46:45;;;;;;;17.50;14.55;;;7.60;99.90;;;;;;4963376;28;26640;-63
2022/02/03 14:49:11;;;;;;;20.60;16.73;;;7.60;99.90;;;;;;4959391;28;20046;-63
2022/02/03 14:52:07;;;;;;;21.15;17.40;;;7.50;99.90;;;;;;4987728;28;20047;-51
2022/02/03 14:59:45;;;;;;;23.05;18.15;;;7.50;99.90;;;;;;4948365;28;20043;-64
2022/02/03 15:02:11;;;;;;;28.52;19.70;;;7.50;99.90;;;;;;4963306;28;21931;-63
2022/02/03 15:04:41;;;;;;;24.33;19.33;;;7.40;99.90;;;;;;4955292;28;20035;-63
2022/02/03 15:07:09;;;;;;;28.73;20.63;;;7.40;99.90;;;;;;4948210;28;20047;-62
2022/02/03 15:10:15;;;;;;;27.98;19.92;;;7.40;99.90;;;;;;4944255;28;20490;-64
2022/02/03 15:12:44;;;;;;;28.80;20.95;;;7.50;99.90;;;;;;4958348;28;20134;-63
2022/02/03 15:15:11;;;;;;;28.35;20.83;;;7.40;99.90;;;;;;4974621;28;20054;-63
2022/02/03 15:17:37;;;;;;;31.38;20.98;;;7.40;99.90;;;;;;5030731;28;20059;-61
2022/02/03 15:20:05;;;;;;;25.27;20.70;;;7.40;99.90;;;;;;4981380;28;20406;-62
2022/02/03 15:22:31;;;;;;;27.45;20.65;;;7.40;99.90;;;;;;4961281;28;20047;-62
2022/02/03 15:25:00;;;;;;;28.27;20.67;;;7.40;99.90;;;;;;4960562;28;20046;-63
2022/02/03 15:27:26;;;;;;;24.08;17.90;;;7.40;99.90;;;;;;4950284;28;20043;-62
2022/02/03 15:29:53;;;;;;;23.60;18.52;;;7.40;99.90;;;;;;4996642;28;20102;-63
2022/02/03 15:32:19;;;;;;;28.15;20.35;;;7.40;99.90;;;;;;5061756;28;20048;-63
2022/02/03 15:34:48;;;;;;;30.13;22.08;;;7.30;99.90;;;;;;4990865;28;20688;-62
2022/02/03 15:37:16;;;;;;;26.42;19.20;;;7.30;99.90;;;;;;4947328;28;20046;-62
2022/02/03 15:39:49;;;;;;;23.08;16.88;;;7.30;99.90;;;;;;4977880;28;20452;-62
2022/02/03 15:42:19;;;;;;;22.88;17.02;;;7.30;99.90;;;;;;5014467;28;20082;-62
2022/02/03 15:44:50;;;;;;;25.85;18.52;;;7.30;99.90;;;;;;4978889;28;20053;-63
2022/02/03 15:47:31;;;;;;;29.42;17.90;;;7.30;99.90;;;;;;4965461;28;20054;-62
2022/02/03 16:03:50;;;;;;;28.13;19.00;;;7.30;99.90;;;;;;4975772;28;20063;-61
2022/02/03 16:17:04;;;;;;;22.77;16.90;;;7.20;99.90;;;;;;4986421;28;20047;-62
2022/02/03 16:19:43;;;;;;;21.50;16.13;;;7.20;99.90;;;;;;4983359;28;20051;-62
2022/02/03 16:22:22;;;;;;;21.60;16.55;;;7.20;99.90;;;;;;4983265;28;20051;-62
2022/02/03 16:24:55;;;;;;;22.70;17.83;;;7.20;99.90;;;;;;4968187;28;20046;-62
2022/02/03 16:41:29;;;;;;;25.48;18.27;;;7.20;99.90;;;;;;4967745;28;20046;-62
2022/02/03 16:52:13;;;;;;;24.85;19.08;;;7.10;99.90;;;;;;4949479;28;20086;-54
2022/02/03 16:54:35;;;;;;;26.48;19.25;;;7.10;99.90;;;;;;4965787;28;20038;-63
2022/02/03 16:57:10;;;;;;;29.05;19.20;;;7.20;99.90;;;;;;4959953;28;20172;-51
2022/02/03 16:59:44;;;;;;;26.95;18.73;;;7.10;99.90;;;;;;4958516;28;20053;-53
2022/02/03 17:02:10;;;;;;;27.10;19.20;;;7.10;99.90;;;;;;4966166;28;20051;-54
2022/02/03 17:04:36;;;;;;;25.60;18.65;;;7.10;99.90;;;;;;4960834;28;20493;-52
2022/02/03 17:07:02;;;;;;;25.23;17.88;;;7.10;99.90;;;;;;4980014;28;20066;-53
2022/02/03 17:09:28;;;;;;;27.13;18.80;;;7.10;99.90;;;;;;4940177;28;20048;-53
2022/02/03 17:11:54;;;;;;;23.73;19.05;;;7.10;99.90;;;;;;4970742;28;20506;-51
2022/02/03 17:14:20;;;;;;;28.23;18.90;;;7.10;99.90;;;;;;4955420;28;20054;-54
2022/02/03 17:16:47;;;;;;;24.42;17.98;;;7.10;99.90;;;;;;4959275;28;20055;-53
2022/02/03 17:19:13;;;;;;;24.08;18.70;;;7.10;99.90;;;;;;4958513;28;20050;-51
2022/02/03 17:21:39;;;;;;;26.83;20.00;;;7.10;99.90;;;;;;4958781;28;20282;-54
2022/02/03 17:24:05;;;;;;;25.35;18.17;;;7.10;99.90;;;;;;4930474;28;20497;-50
2022/02/03 17:26:48;;;;;;;25.83;19.30;;;7.10;99.90;;;;;;4958973;28;20083;-62
2022/02/03 17:29:32;;;;;;;25.00;18.95;;;7.10;99.90;;;;;;4967879;28;20047;-54
2022/02/03 17:32:15;;;;;;;26.02;18.50;;;7.10;99.90;;;;;;4956503;28;20050;-63
2022/02/03 18:05:22;;;;;;;38.13;25.92;;;7.10;99.90;;;;;;4956142;28;20046;-62
2022/02/03 18:45:56;;;;;;;42.25;28.40;;;7.10;99.90;;;;;;5003160;28;20506;-61
2022/02/03 18:54:26;;;;;;;45.30;28.25;;;7.10;99.90;;;;;;4934544;28;20070;-61
2022/02/03 18:57:01;;;;;;;45.05;28.15;;;7.10;99.90;;;;;;4944504;28;20097;-61
2022/02/03 18:59:51;;;;;;;42.95;28.20;;;7.10;99.90;;;;;;4988169;28;20071;-61
2022/02/03 20:07:19;;;;;;;53.28;37.03;;;7.20;99.90;;;;;;4972952;28;20541;-61
2022/02/03 20:12:15;;;;;;;57.15;36.80;;;7.30;99.90;;;;;;4974225;28;20502;-46
2022/02/03 20:14:41;;;;;;;51.22;35.90;;;7.30;99.90;;;;;;4964560;28;20055;-61
2022/02/03 20:17:07;;;;;;;49.90;36.05;;;7.30;99.90;;;;;;4975973;28;20139;-60
2022/02/03 20:19:35;;;;;;;56.45;36.78;;;7.30;99.90;;;;;;4981732;28;20129;-61
2022/02/03 20:22:02;;;;;;;52.78;35.90;;;7.30;99.90;;;;;;4969610;28;20061;-47
2022/02/03 20:24:28;;;;;;;54.22;37.65;;;7.30;99.90;;;;;;4960153;28;20513;-45
2022/02/03 20:26:54;;;;;;;50.80;35.03;;;7.30;99.90;;;;;;4963659;28;20051;-47
2022/02/03 20:29:20;;;;;;;51.42;35.28;;;7.30;99.90;;;;;;4963665;28;20085;-62
2022/02/03 20:31:47;;;;;;;47.65;33.70;;;7.30;99.90;;;;;;4955851;28;20042;-61
2022/02/03 20:34:13;;;;;;;55.58;36.63;;;7.30;99.90;;;;;;4922085;28;20061;-61
2022/02/03 20:36:39;;;;;;;51.42;36.55;;;7.40;99.90;;;;;;4975215;28;20753;-46
2022/02/03 20:39:05;;;;;;;50.97;35.35;;;7.40;99.90;;;;;;4967092;28;20055;-46
2022/02/03 20:41:31;;;;;;;53.90;35.05;;;7.40;99.90;;;;;;4960707;28;20086;-61
2022/02/03 20:43:57;;;;;;;53.03;35.38;;;7.40;99.90;;;;;;4964973;28;20163;-61
2022/02/03 20:46:24;;;;;;;49.55;34.78;;;7.40;99.90;;;;;;4962281;28;20047;-62
2022/02/03 20:48:50;;;;;;;56.72;38.00;;;7.40;99.90;;;;;;4958212;28;20047;-61
2022/02/03 20:51:18;;;;;;;46.28;35.58;;;7.30;99.90;;;;;;4962613;28;20038;-62
2022/02/03 20:53:46;;;;;;;50.97;35.65;;;7.30;99.90;;;;;;4960408;28;20062;-61
2022/02/03 20:56:17;;;;;;;53.55;35.90;;;7.30;99.90;;;;;;4964997;28;20055;-61
2022/02/03 20:58:45;;;;;;;52.63;36.87;;;7.30;99.90;;;;;;4957761;28;20529;-61
2022/02/03 21:01:19;;;;;;;49.63;34.25;;;7.30;99.90;;;;;;4950814;28;20050;-61
2022/02/03 21:03:47;;;;;;;48.22;35.80;;;7.40;99.90;;;;;;4942011;28;20059;-61
2022/02/03 21:06:15;;;;;;;50.95;35.78;;;7.30;99.90;;;;;;4956716;28;20478;-61
2022/02/03 21:08:46;;;;;;;49.63;34.65;;;7.40;99.90;;;;;;4976806;28;20112;-61
2022/02/03 21:11:13;;;;;;;53.97;36.25;;;7.30;99.90;;;;;;4959372;28;20050;-61
2022/02/03 21:13:40;;;;;;;51.35;35.50;;;7.30;99.90;;;;;;4975388;28;20047;-61
2022/02/03 21:16:07;;;;;;;49.67;35.50;;;7.40;99.90;;;;;;4954595;28;20083;-58
2022/02/03 21:18:37;;;;;;;47.83;34.70;;;7.40;99.90;;;;;;4962609;28;20145;-62
2022/02/03 21:21:05;;;;;;;50.28;35.50;;;7.40;99.90;;;;;;4956870;28;20125;-62
2022/02/03 21:23:32;;;;;;;49.60;34.20;;;7.40;99.90;;;;;;4950992;28;20051;-63
2022/02/03 21:26:01;;;;;;;55.38;37.17;;;7.40;99.90;;;;;;4964265;28;20500;-63
2022/02/03 21:28:31;;;;;;;53.55;36.08;;;7.40;99.90;;;;;;4962227;28;20046;-62
2022/02/03 21:30:59;;;;;;;54.08;36.33;;;7.40;99.90;;;;;;4942065;28;20548;-62
2022/02/03 21:33:30;;;;;;;54.95;38.28;;;7.40;99.90;;;;;;4955615;28;20082;-62
2022/02/03 21:36:06;;;;;;;48.70;35.17;;;7.40;99.90;;;;;;4979202;28;20551;-63
2022/02/03 21:38:33;;;;;;;48.95;36.08;;;7.30;99.90;;;;;;4959365;28;20043;-63
2022/02/03 21:41:01;;;;;;;51.47;35.72;;;7.40;99.90;;;;;;4954373;28;20082;-62
2022/02/03 21:43:27;;;;;;;53.63;35.05;;;7.30;99.90;;;;;;4962312;28;20428;-62
2022/02/03 21:45:53;;;;;;;52.25;35.28;;;7.30;99.90;;;;;;4964972;28;20050;-54
2022/02/03 21:48:20;;;;;;;55.13;36.17;;;7.30;99.90;;;;;;4965615;28;20053;-50
2022/02/03 21:50:46;;;;;;;53.03;35.45;;;7.30;99.90;;;;;;4935628;28;20046;-55
2022/02/03 21:53:18;;;;;;;51.90;36.33;;;7.30;99.90;;;;;;4979382;28;20046;-53
2022/02/03 21:55:46;;;;;;;49.72;35.30;;;7.30;99.90;;;;;;5013209;28;20450;-53
2022/02/03 21:58:13;;;;;;;50.45;35.22;;;7.30;99.90;;;;;;4985714;28;20130;-52
2022/02/03 22:00:39;;;;;;;48.65;34.65;;;7.30;99.90;;;;;;4981027;28;20310;-54
2022/02/03 22:03:06;;;;;;;51.15;35.38;;;7.30;99.90;;;;;;5001279;28;20068;-52
2022/02/03 22:05:33;;;;;;;46.55;33.33;;;7.30;99.90;;;;;;4991767;28;20536;-51
2022/02/03 22:08:00;;;;;;;47.70;34.58;;;7.20;99.90;;;;;;5013028;28;20126;-51
2022/02/03 22:10:27;;;;;;;51.63;36.28;;;7.20;99.90;;;;;;4981262;28;20085;-52
2022/02/03 22:12:53;;;;;;;52.08;35.20;;;7.30;99.90;;;;;;4951102;28;20117;-54
2022/02/03 22:15:20;;;;;;;48.35;35.58;;;7.20;99.90;;;;;;4958230;28;21413;-51
2022/02/03 22:17:47;;;;;;;51.30;36.70;;;7.20;99.90;;;;;;4975703;28;20070;-49
2022/02/03 22:20:36;;;;;;;47.15;36.13;;;7.20;99.90;;;;;;4943469;28;20537;-52
2022/02/03 22:44:43;;;;;;;;;;;7.20;99.90;;;;;;4972385;28;20054;-53
2022/02/03 22:49:43;;;;;;;48.70;33.53;;;7.20;99.90;;;;;;4993679;28;20059;-52
2022/02/03 22:52:11;;;;;;;47.53;34.17;;;7.20;99.90;;;;;;4960307;28;20055;-51
2022/02/03 22:54:37;;;;;;;48.63;36.35;;;7.10;99.90;;;;;;5025046;28;20398;-51
2022/02/03 22:57:04;;;;;;;45.83;34.38;;;7.20;99.90;;;;;;4988837;28;20153;-52
2022/02/03 23:02:11;;;;;;;44.35;33.78;;;7.20;99.90;;;;;;4943826;28;20470;-61
2022/02/03 23:04:38;;;;;;;46.65;33.42;;;7.20;99.90;;;;;;4969861;28;20054;-62
2022/02/03 23:07:15;;;;;;;44.10;33.55;;;7.10;99.90;;;;;;4976078;28;20082;-62
2022/02/03 23:09:53;;;;;;;47.20;33.00;;;7.10;99.90;;;;;;4987801;28;20177;-49
2022/02/03 23:20:16;;;;;;;48.53;33.67;;;7.00;99.90;;;;;;4976894;28;20042;-52
2022/02/03 23:22:43;;;;;;;44.83;32.38;;;6.90;99.90;;;;;;4977851;28;20046;-54
2022/02/03 23:25:13;;;;;;;47.03;31.65;;;6.90;99.90;;;;;;4976520;28;20116;-53
2022/02/03 23:30:10;;;;;;;45.30;32.33;;;7.00;99.90;;;;;;4971305;28;20039;-50
2022/02/03 23:32:37;;;;;;;44.47;31.52;;;7.00;99.90;;;;;;4929275;29;20442;-62
2022/02/03 23:38:26;;;;;;;43.20;29.88;;;7.10;99.90;;;;;;4962479;28;20059;-63
2022/02/03 23:46:44;;;;;;;49.40;30.38;;;7.10;99.90;;;;;;4959345;28;20130;-62
2022/02/03 23:52:08;;;;;;;40.92;28.73;;;7.10;99.90;;;;;;4963292;28;20528;-63
